Time;durP1;ratioP1;P1;durP2;ratioP2;P2;SDS_P1;SDS_P2;PMS_P1;PMS_P2;Temp;Humidity;BMP_temperature;BMP_pressure;BME280_temperature;BME280_humidity;BME280_pressure;Samples;Min_cycle;Max_cycle;Signal;HPM_P1;HPM_P2
2021/08/03 00:00:01;;;;;;;5.85;5.35;;;11.40;99.90;;;;;;5075031;28;20079;-86
2021/08/03 00:02:29;;;;;;;9.60;5.78;;;11.40;99.90;;;;;;5074228;28;20056;-87
2021/08/03 00:04:58;;;;;;;5.43;4.93;;;11.30;99.90;;;;;;5074611;28;20205;-87
2021/08/03 00:07:27;;;;;;;8.75;5.97;;;11.20;99.90;;;;;;5073863;28;20059;-88
2021/08/03 00:09:55;;;;;;;6.65;5.57;;;11.20;99.90;;;;;;5073683;28;20072;-88
2021/08/03 00:12:24;;;;;;;6.72;6.13;;;11.20;99.90;;;;;;5073795;28;20048;-87
2021/08/03 00:14:53;;;;;;;7.30;5.20;;;11.20;99.90;;;;;;5074837;28;20480;-87
2021/08/03 00:17:23;;;;;;;8.10;6.40;;;11.10;99.90;;;;;;5074585;28;20058;-88
2021/08/03 00:19:50;;;;;;;7.40;6.60;;;11.10;99.90;;;;;;5074419;28;20063;-87
2021/08/03 00:22:18;;;;;;;6.80;6.20;;;11.10;99.90;;;;;;5072473;28;20515;-87
2021/08/03 00:24:44;;;;;;;7.18;6.35;;;11.10;99.90;;;;;;5074619;28;20045;-88
2021/08/03 00:27:11;;;;;;;11.07;6.47;;;11.00;99.90;;;;;;5073562;28;20481;-87
2021/08/03 00:29:38;;;;;;;7.50;5.57;;;11.00;99.90;;;;;;5073393;28;20056;-87
2021/08/03 00:32:06;;;;;;;5.88;5.30;;;11.10;99.90;;;;;;5073550;28;20055;-87
2021/08/03 00:34:36;;;;;;;8.32;5.70;;;11.00;99.90;;;;;;5073870;28;20059;-88
2021/08/03 00:37:07;;;;;;;9.25;5.68;;;11.00;99.90;;;;;;5073212;28;20059;-87
2021/08/03 00:39:36;;;;;;;6.13;4.75;;;11.00;99.90;;;;;;5073221;28;20051;-87
2021/08/03 00:42:05;;;;;;;6.50;5.90;;;10.90;99.90;;;;;;5074235;28;20412;-87
2021/08/03 00:44:48;;;;;;;10.88;6.85;;;10.80;99.90;;;;;;5073183;28;20107;-88
2021/08/03 00:47:16;;;;;;;9.97;6.97;;;10.80;99.90;;;;;;5074185;28;20408;-87
2021/08/03 00:49:44;;;;;;;9.68;6.80;;;10.80;99.90;;;;;;5073016;28;20045;-87
2021/08/03 00:52:13;;;;;;;8.95;6.95;;;10.80;99.90;;;;;;5073093;28;20049;-87
2021/08/03 00:54:41;;;;;;;10.07;6.00;;;10.80;99.90;;;;;;5073971;28;20047;-87
2021/08/03 00:57:09;;;;;;;7.63;6.35;;;10.70;99.90;;;;;;5072864;28;20071;-87
2021/08/03 00:59:36;;;;;;;10.43;7.88;;;10.80;99.90;;;;;;5073036;28;20436;-87
2021/08/03 01:02:05;;;;;;;18.27;10.27;;;10.90;99.90;;;;;;5078008;28;20135;-88
2021/08/03 01:04:33;;;;;;;11.70;8.93;;;10.90;99.90;;;;;;5073952;28;20049;-87
2021/08/03 01:07:40;;;;;;;8.73;7.80;;;11.00;99.90;;;;;;5073872;28;20485;-87
2021/08/03 01:10:19;;;;;;;13.35;8.48;;;11.10;99.90;;;;;;5072709;28;20048;-87
2021/08/03 01:12:57;;;;;;;12.93;8.18;;;11.20;99.90;;;;;;5074054;28;20052;-87
2021/08/03 01:15:32;;;;;;;15.32;9.18;;;11.30;99.90;;;;;;5073855;28;20053;-87
2021/08/03 01:18:22;;;;;;;13.10;9.02;;;11.30;99.90;;;;;;5073501;28;20052;-88
2021/08/03 01:21:26;;;;;;;8.32;6.82;;;11.40;99.90;;;;;;5072859;28;20044;-87
2021/08/03 01:23:59;;;;;;;10.45;7.53;;;11.40;99.90;;;;;;5072783;28;20063;-88
2021/08/03 01:27:06;;;;;;;7.90;6.88;;;11.40;99.90;;;;;;5072726;28;20044;-87
2021/08/03 01:29:33;;;;;;;11.27;6.97;;;11.50;99.90;;;;;;5072710;28;20067;-87
2021/08/03 01:32:06;;;;;;;11.73;6.95;;;11.50;99.90;;;;;;5072556;28;20488;-88
2021/08/03 01:34:37;;;;;;;;;;;11.50;99.90;;;;;;5079677;28;20449;-88
2021/08/03 01:37:05;;;;;;;18.83;7.90;;;11.60;99.90;;;;;;5080244;28;20280;-87
2021/08/03 01:39:36;;;;;;;13.88;8.07;;;11.60;99.90;;;;;;5079142;28;20045;-87
2021/08/03 01:42:05;;;;;;;11.80;9.30;;;11.60;99.90;;;;;;5079378;28;20131;-88
2021/08/03 01:44:34;;;;;;;12.07;8.15;;;11.60;99.90;;;;;;5080172;28;20041;-87
2021/08/03 01:47:04;;;;;;;10.10;8.45;;;11.60;99.90;;;;;;5079261;28;20048;-88
2021/08/03 01:49:35;;;;;;;13.68;8.73;;;11.60;99.90;;;;;;5078780;28;20131;-88
2021/08/03 01:52:06;;;;;;;9.85;7.38;;;11.60;99.90;;;;;;5079124;28;20062;-87
2021/08/03 01:54:34;;;;;;;10.60;7.13;;;11.60;99.90;;;;;;5079238;28;20131;-88
2021/08/03 01:57:02;;;;;;;7.97;7.18;;;11.60;99.90;;;;;;5080076;28;20052;-88
2021/08/03 01:59:29;;;;;;;9.55;6.40;;;11.50;99.90;;;;;;5080602;28;20540;-87
2021/08/03 02:01:58;;;;;;;9.00;6.68;;;11.50;99.90;;;;;;5078953;28;20059;-87
2021/08/03 02:04:26;;;;;;;7.13;6.43;;;11.50;99.90;;;;;;5079663;28;20044;-87
2021/08/03 02:06:53;;;;;;;8.85;6.78;;;11.50;99.90;;;;;;5078722;28;20083;-87
2021/08/03 02:09:21;;;;;;;7.03;6.32;;;11.50;99.90;;;;;;5078451;28;20464;-88
2021/08/03 02:11:49;;;;;;;6.85;6.32;;;11.40;99.90;;;;;;5078501;28;20054;-88
2021/08/03 02:14:19;;;;;;;7.05;6.38;;;11.40;99.90;;;;;;5078368;28;20044;-87
2021/08/03 02:16:46;;;;;;;7.80;7.10;;;11.50;99.90;;;;;;5079468;28;20036;-87
2021/08/03 02:19:13;;;;;;;7.15;6.60;;;11.40;99.90;;;;;;5079338;28;20063;-88
2021/08/03 02:21:45;;;;;;;9.82;7.50;;;11.40;99.90;;;;;;5082794;28;20059;-88
2021/08/03 02:24:13;;;;;;;7.95;7.10;;;11.30;99.90;;;;;;5078588;28;20052;-86
2021/08/03 02:26:40;;;;;;;8.95;7.60;;;11.40;99.90;;;;;;5078360;28;20048;-87
2021/08/03 02:29:07;;;;;;;10.20;9.10;;;11.40;99.90;;;;;;5079187;28;20048;-88
2021/08/03 02:31:52;;;;;;;9.88;8.10;;;11.30;99.90;;;;;;5078432;28;20044;-88
2021/08/03 02:34:36;;;;;;;12.63;9.55;;;11.30;99.90;;;;;;5079098;28;20045;-87
2021/08/03 02:37:06;;;;;;;8.55;7.55;;;11.30;99.90;;;;;;5079416;28;20048;-88
2021/08/03 02:39:34;;;;;;;8.18;7.28;;;11.30;99.90;;;;;;5078317;28;20047;-87
2021/08/03 02:42:02;;;;;;;11.95;8.63;;;11.30;99.90;;;;;;5078664;28;20051;-88
2021/08/03 02:44:31;;;;;;;12.02;9.07;;;11.30;99.90;;;;;;5077146;28;20045;-87
2021/08/03 02:47:02;;;;;;;11.70;9.27;;;11.30;99.90;;;;;;5075194;28;20089;-87
2021/08/03 02:49:35;;;;;;;9.57;8.25;;;11.20;99.90;;;;;;5075565;28;20421;-88
2021/08/03 02:52:05;;;;;;;9.63;8.73;;;11.20;99.90;;;;;;5075064;28;20501;-89
2021/08/03 02:54:36;;;;;;;7.88;7.18;;;11.30;99.90;;;;;;5074973;28;20051;-88
2021/08/03 02:57:07;;;;;;;8.35;7.65;;;11.40;99.90;;;;;;5074928;28;20052;-88
2021/08/03 02:59:38;;;;;;;7.68;6.97;;;11.30;99.90;;;;;;5075832;28;20051;-87
2021/08/03 03:02:13;;;;;;;11.00;8.52;;;11.30;99.90;;;;;;5074887;28;20051;-87
2021/08/03 03:04:57;;;;;;;9.73;8.32;;;11.30;99.90;;;;;;5074633;28;20053;-88
2021/08/03 03:07:49;;;;;;;7.65;6.85;;;11.30;99.90;;;;;;5074925;28;20048;-88
2021/08/03 03:10:20;;;;;;;8.40;6.70;;;11.20;99.90;;;;;;5074775;28;20051;-88
2021/08/03 03:12:52;;;;;;;7.63;6.82;;;11.30;99.90;;;;;;5075952;28;20049;-87
2021/08/03 03:15:20;;;;;;;8.65;7.75;;;11.40;99.90;;;;;;5074934;28;20056;-86
2021/08/03 03:17:47;;;;;;;7.45;6.57;;;11.40;99.90;;;;;;5075209;28;20058;-88
2021/08/03 03:20:17;;;;;;;16.92;7.65;;;11.40;99.90;;;;;;5074167;28;20553;-88
2021/08/03 03:22:46;;;;;;;11.40;8.43;;;11.30;99.90;;;;;;5075793;28;20139;-88
2021/08/03 03:25:18;;;;;;;9.98;8.30;;;11.30;99.90;;;;;;5074669;28;20048;-87
2021/08/03 03:27:48;;;;;;;11.30;7.72;;;11.20;99.90;;;;;;5074646;28;20059;-88
2021/08/03 03:30:16;;;;;;;10.93;8.02;;;11.20;99.90;;;;;;5074530;28;20394;-87
2021/08/03 03:32:45;;;;;;;9.80;7.45;;;11.20;99.90;;;;;;5074725;28;20146;-87
2021/08/03 03:35:15;;;;;;;9.35;7.78;;;11.20;99.90;;;;;;5075255;28;20052;-87
2021/08/03 03:37:43;;;;;;;8.18;7.47;;;11.20;99.90;;;;;;5078112;28;20139;-88
2021/08/03 03:40:14;;;;;;;8.00;7.28;;;11.20;99.90;;;;;;5082161;28;20101;-88
2021/08/03 03:42:42;;;;;;;12.63;8.57;;;11.20;99.90;;;;;;5074660;28;20071;-88
2021/08/03 03:45:11;;;;;;;22.42;8.98;;;11.10;99.90;;;;;;5074199;28;20048;-88
2021/08/03 03:47:41;;;;;;;13.43;8.77;;;11.20;99.90;;;;;;5074232;28;20045;-88
2021/08/03 03:50:19;;;;;;;8.60;7.57;;;11.10;99.90;;;;;;5074098;28;20055;-88
2021/08/03 03:52:59;;;;;;;11.77;9.18;;;11.20;99.90;;;;;;5074029;28;20476;-88
2021/08/03 03:55:27;;;;;;;18.15;8.20;;;11.30;99.90;;;;;;5073589;28;20607;-88
2021/08/03 03:57:54;;;;;;;15.30;7.20;;;11.30;99.90;;;;;;5074371;28;20048;-88
2021/08/03 04:00:21;;;;;;;20.25;10.00;;;11.30;99.90;;;;;;5073707;28;20047;-88
2021/08/03 04:02:50;;;;;;;16.67;9.80;;;11.30;99.90;;;;;;5074801;28;20044;-88
2021/08/03 04:05:18;;;;;;;12.10;10.02;;;11.40;99.90;;;;;;5074404;28;20431;-87
2021/08/03 04:07:54;;;;;;;49.38;10.80;;;11.40;99.90;;;;;;5073737;28;20056;-88
2021/08/03 04:10:32;;;;;;;24.20;11.07;;;11.40;99.90;;;;;;5073230;28;20048;-87
2021/08/03 04:12:59;;;;;;;20.35;9.65;;;11.40;99.90;;;;;;5073570;28;20052;-87
2021/08/03 04:15:27;;;;;;;14.80;9.18;;;11.40;99.90;;;;;;5073543;28;20044;-87
2021/08/03 04:17:54;;;;;;;8.88;7.97;;;11.50;99.90;;;;;;5073293;28;20052;-88
2021/08/03 04:20:22;;;;;;;10.43;8.48;;;11.50;99.90;;;;;;5074415;28;20055;-88
2021/08/03 04:22:48;;;;;;;13.45;8.85;;;11.50;99.90;;;;;;5072966;28;20481;-87
2021/08/03 04:25:15;;;;;;;8.98;8.07;;;11.60;99.90;;;;;;5073025;28;20050;-88
2021/08/03 04:27:42;;;;;;;7.97;7.28;;;11.60;99.90;;;;;;5074202;28;20055;-88
2021/08/03 04:30:12;;;;;;;7.18;6.55;;;11.60;99.90;;;;;;5073287;28;20412;-88
2021/08/03 04:32:39;;;;;;;8.93;7.82;;;11.60;99.90;;;;;;5073248;28;20056;-88
2021/08/03 04:35:08;;;;;;;6.97;6.47;;;11.60;99.90;;;;;;5073945;28;20428;-88
2021/08/03 04:37:44;;;;;;;8.57;7.07;;;11.60;99.90;;;;;;5072687;28;20044;-88
2021/08/03 04:40:14;;;;;;;5.70;5.20;;;11.70;99.90;;;;;;5073139;28;20048;-88
2021/08/03 04:42:42;;;;;;;5.70;5.30;;;11.80;99.90;;;;;;5072664;28;20045;-87
2021/08/03 04:45:10;;;;;;;6.45;5.93;;;11.80;99.90;;;;;;5073059;28;20052;-88
2021/08/03 04:47:45;;;;;;;9.15;7.70;;;11.80;99.90;;;;;;5072778;28;20140;-88
2021/08/03 04:50:19;;;;;;;6.60;6.10;;;11.90;99.90;;;;;;5072679;28;20052;-88
2021/08/03 04:52:46;;;;;;;7.70;7.00;;;11.90;99.90;;;;;;5074099;28;20055;-88
2021/08/03 04:55:13;;;;;;;7.82;7.03;;;12.00;99.90;;;;;;5073325;28;20408;-88
2021/08/03 04:57:40;;;;;;;11.60;7.22;;;12.10;99.90;;;;;;5078658;28;20045;-88
2021/08/03 05:00:09;;;;;;;10.68;6.30;;;12.10;99.90;;;;;;5075314;28;20072;-87
2021/08/03 05:02:36;;;;;;;5.20;4.82;;;12.10;99.90;;;;;;5072605;28;20400;-88
2021/08/03 05:05:05;;;;;;;6.85;4.60;;;12.20;99.90;;;;;;5072611;28;20072;-88
2021/08/03 05:07:32;;;;;;;4.90;4.60;;;12.30;99.90;;;;;;5072012;28;20390;-87
2021/08/03 05:10:03;;;;;;;8.07;6.05;;;12.40;99.90;;;;;;5072598;28;20074;-88
2021/08/03 05:12:30;;;;;;;8.02;6.13;;;12.50;99.90;;;;;;5072383;28;20135;-88
2021/08/03 05:15:00;;;;;;;6.45;5.60;;;12.60;99.90;;;;;;5072433;28;20135;-88
2021/08/03 05:17:29;;;;;;;6.75;6.13;;;12.70;99.90;;;;;;5072454;28;20041;-88
2021/08/03 05:19:57;;;;;;;6.28;5.78;;;13.00;99.90;;;;;;5072296;28;20443;-88
2021/08/03 05:22:24;;;;;;;5.93;5.53;;;13.30;99.90;;;;;;5072332;28;20049;-88
2021/08/03 05:24:51;;;;;;;4.70;4.15;;;13.60;99.90;;;;;;5072457;28;20058;-87
2021/08/03 05:27:19;;;;;;;4.13;3.92;;;13.60;99.90;;;;;;5071946;28;20094;-87
2021/08/03 05:29:46;;;;;;;3.92;3.50;;;14.00;99.90;;;;;;5073180;28;20052;-88
2021/08/03 05:32:13;;;;;;;2.88;2.30;;;14.70;99.90;;;;;;5073070;28;20048;-88
2021/08/03 05:34:40;;;;;;;2.42;2.22;;;14.90;99.90;;;;;;5072102;28;20458;-88
2021/08/03 05:37:07;;;;;;;2.15;2.05;;;14.80;99.90;;;;;;5073185;28;20122;-88
2021/08/03 05:39:34;;;;;;;5.38;1.90;;;15.60;99.90;;;;;;5072056;28;20167;-88
2021/08/03 05:42:01;;;;;;;2.50;2.30;;;15.60;99.90;;;;;;5071903;28;20079;-88
2021/08/03 05:44:28;;;;;;;4.78;2.40;;;15.90;99.90;;;;;;5072200;28;20131;-89
2021/08/03 05:46:57;;;;;;;4.00;1.90;;;16.80;99.90;;;;;;5071966;28;20059;-88
2021/08/03 05:49:24;;;;;;;3.05;1.60;;;17.70;99.90;;;;;;5071287;28;20051;-87
2021/08/03 05:51:51;;;;;;;6.80;1.98;;;19.10;99.90;;;;;;5071904;28;20055;-88
2021/08/03 05:54:18;;;;;;;6.90;2.08;;;19.60;99.90;;;;;;5071839;28;20054;-88
2021/08/03 05:56:44;;;;;;;4.15;2.05;;;19.60;99.90;;;;;;5071860;28;20051;-88
2021/08/03 05:59:11;;;;;;;9.00;1.75;;;20.30;99.90;;;;;;5072566;28;20411;-89
2021/08/03 06:01:38;;;;;;;3.50;2.00;;;21.40;99.90;;;;;;5072113;28;20475;-89
2021/08/03 06:04:05;;;;;;;5.65;1.85;;;22.00;99.90;;;;;;5071820;28;20098;-89
2021/08/03 06:06:38;;;;;;;3.72;1.92;;;22.50;99.90;;;;;;5072141;28;20416;-89
2021/08/03 06:09:09;;;;;;;3.53;2.35;;;22.10;99.90;;;;;;5073023;28;20048;-89
2021/08/03 06:11:43;;;;;;;12.77;2.35;;;21.00;99.90;;;;;;5072978;28;20052;-89
2021/08/03 06:14:11;;;;;;;7.93;2.20;;;20.10;99.90;;;;;;5072292;28;20048;-90
2021/08/03 06:16:38;;;;;;;4.38;2.28;;;19.60;99.90;;;;;;5079012;28;20122;-88
2021/08/03 06:19:08;;;;;;;6.93;2.60;;;19.50;99.90;;;;;;5074256;28;20053;-88
2021/08/03 06:21:36;;;;;;;5.40;2.33;;;19.20;99.90;;;;;;5075268;28;20412;-88
2021/08/03 06:24:04;;;;;;;7.85;2.80;;;19.20;99.90;;;;;;5075354;28;20049;-87
2021/08/03 06:26:30;;;;;;;4.15;2.45;;;19.40;99.90;;;;;;5075416;28;20040;-89
2021/08/03 06:28:58;;;;;;;7.88;3.17;;;19.70;99.90;;;;;;5075844;28;20108;-89
2021/08/03 06:31:26;;;;;;;6.18;2.60;;;19.90;99.90;;;;;;5075354;28;20051;-88
2021/08/03 06:33:54;;;;;;;5.93;2.40;;;20.00;99.90;;;;;;5075447;28;20052;-90
2021/08/03 06:36:21;;;;;;;8.25;2.50;;;20.20;99.90;;;;;;5076032;28;20434;-89
2021/08/03 06:38:47;;;;;;;12.93;2.55;;;20.30;99.90;;;;;;5076492;28;20051;-90
2021/08/03 06:41:32;;;;;;;7.00;2.25;;;20.30;99.90;;;;;;5074818;28;20055;-89
2021/08/03 06:44:21;;;;;;;9.63;2.35;;;20.10;99.90;;;;;;5075025;28;20132;-89
2021/08/03 06:46:52;;;;;;;4.35;2.53;;;19.80;99.90;;;;;;5074897;28;20045;-90
2021/08/03 06:49:21;;;;;;;7.13;2.67;;;19.90;99.90;;;;;;5076021;28;20065;-89
2021/08/03 06:51:48;;;;;;;11.02;2.75;;;19.80;99.90;;;;;;5076011;28;20040;-88
2021/08/03 06:54:16;;;;;;;2.88;2.45;;;20.10;99.90;;;;;;5074533;28;20052;-88
2021/08/03 06:57:02;;;;;;;5.53;2.20;;;20.60;99.90;;;;;;5074754;28;20045;-88
2021/08/03 06:59:32;;;;;;;9.48;2.13;;;21.40;99.90;;;;;;5074521;28;20051;-86
2021/08/03 07:02:07;;;;;;;6.75;3.40;;;22.20;99.90;;;;;;5074675;28;20040;-89
2021/08/03 07:05:01;;;;;;;7.28;3.80;;;22.20;99.90;;;;;;5073966;28;20048;-88
2021/08/03 07:07:29;;;;;;;5.78;2.72;;;22.00;99.90;;;;;;5072695;28;20051;-88
2021/08/03 07:09:58;;;;;;;2.72;1.98;;;22.10;99.90;;;;;;5072673;28;20432;-88
2021/08/03 07:12:25;;;;;;;1.80;1.65;;;22.50;99.90;;;;;;5075389;28;20052;-88
2021/08/03 07:14:53;;;;;;;6.38;2.92;;;22.50;99.90;;;;;;5075604;28;20060;-89
2021/08/03 07:17:21;;;;;;;4.15;1.90;;;22.50;99.90;;;;;;5074326;28;20044;-88
2021/08/03 07:19:50;;;;;;;1.85;1.70;;;22.20;99.90;;;;;;5074230;28;20086;-88
2021/08/03 07:22:18;;;;;;;1.60;1.50;;;21.90;99.90;;;;;;5074008;28;20405;-88
2021/08/03 07:24:49;;;;;;;1.65;1.50;;;21.60;99.90;;;;;;5075133;28;20055;-87
2021/08/03 07:27:15;;;;;;;1.52;1.40;;;21.40;99.90;;;;;;5075075;28;20050;-88
2021/08/03 07:29:42;;;;;;;1.50;1.40;;;21.40;99.90;;;;;;5073734;28;20385;-87
2021/08/03 07:32:11;;;;;;;2.63;1.52;;;21.50;99.90;;;;;;5073774;28;20072;-88
2021/08/03 07:34:40;;;;;;;1.23;1.13;;;21.90;99.90;;;;;;5074730;28;20053;-87
2021/08/03 07:37:09;;;;;;;3.63;1.52;;;22.50;99.90;;;;;;5075602;28;20055;-87
2021/08/03 07:39:37;;;;;;;1.60;1.50;;;22.80;99.90;;;;;;5073691;28;20143;-87
2021/08/03 07:42:05;;;;;;;1.58;1.48;;;23.10;99.90;;;;;;5073694;28;20506;-88
2021/08/03 07:44:32;;;;;;;4.35;1.58;;;23.50;99.90;;;;;;5073697;28;20059;-85
2021/08/03 07:46:59;;;;;;;2.38;1.45;;;23.60;99.90;;;;;;5074072;28;20059;-86
2021/08/03 07:49:25;;;;;;;1.50;1.40;;;24.20;99.90;;;;;;5073407;28;20046;-85
2021/08/03 07:51:52;;;;;;;4.25;1.85;;;24.10;99.90;;;;;;5073285;28;20059;-85
2021/08/03 07:54:20;;;;;;;1.40;1.40;;;23.80;99.90;;;;;;5073605;28;20049;-86
2021/08/03 07:56:46;;;;;;;1.95;1.63;;;23.10;99.90;;;;;;5073582;28;20127;-84
2021/08/03 07:59:13;;;;;;;1.50;1.40;;;22.10;99.90;;;;;;5073350;28;20055;-84
2021/08/03 08:01:40;;;;;;;1.50;1.50;;;21.80;99.90;;;;;;5072895;28;20047;-84
2021/08/03 08:04:07;;;;;;;1.80;1.70;;;21.90;99.90;;;;;;5074184;28;20053;-85
2021/08/03 08:06:34;;;;;;;2.50;1.30;;;22.10;99.90;;;;;;5074253;28;20067;-85
2021/08/03 08:09:15;;;;;;;1.42;1.42;;;22.40;99.90;;;;;;5073686;28;20048;-85
2021/08/03 08:11:42;;;;;;;2.05;1.27;;;22.90;99.90;;;;;;5074357;28;20045;-85
2021/08/03 08:14:09;;;;;;;1.85;1.20;;;23.30;99.90;;;;;;5074230;28;20048;-85
2021/08/03 08:16:36;;;;;;;0.88;0.88;;;23.70;99.90;;;;;;5074087;28;20052;-85
2021/08/03 08:19:03;;;;;;;1.77;1.30;;;24.30;99.90;;;;;;5073163;28;20052;-85
2021/08/03 08:21:33;;;;;;;1.77;1.20;;;24.70;99.90;;;;;;5073280;28;20044;-84
2021/08/03 08:24:01;;;;;;;1.25;1.15;;;25.50;99.90;;;;;;5073111;28;20135;-85
2021/08/03 08:26:29;;;;;;;1.40;1.20;;;26.30;99.90;;;;;;5073941;28;20091;-86
2021/08/03 08:28:56;;;;;;;2.55;1.17;;;27.00;99.90;;;;;;5073310;28;20086;-86
2021/08/03 08:31:23;;;;;;;1.20;1.20;;;27.40;98.20;;;;;;5074047;28;20590;-86
2021/08/03 08:33:49;;;;;;;1.33;1.25;;;27.10;99.50;;;;;;5073127;28;20493;-86
2021/08/03 08:36:16;;;;;;;2.72;1.00;;;27.50;97.40;;;;;;5072717;28;20062;-86
2021/08/03 08:38:43;;;;;;;1.25;1.15;;;27.40;98.00;;;;;;5073917;28;20049;-86
2021/08/03 08:41:13;;;;;;;1.20;1.10;;;27.20;97.10;;;;;;5072743;28;20429;-86
2021/08/03 08:43:41;;;;;;;1.35;1.25;;;27.20;97.20;;;;;;5072101;28;20083;-86
2021/08/03 08:46:13;;;;;;;1.85;1.17;;;26.80;97.20;;;;;;5072745;28;20509;-86
2021/08/03 08:48:42;;;;;;;1.00;1.00;;;26.80;96.60;;;;;;5072664;28;20049;-86
2021/08/03 08:51:09;;;;;;;1.30;1.20;;;27.20;95.70;;;;;;5072829;28;20401;-86
2021/08/03 08:53:37;;;;;;;9.35;1.90;;;27.00;94.70;;;;;;5074717;28;20052;-86
2021/08/03 08:56:04;;;;;;;1.38;1.23;;;27.20;95.20;;;;;;5077690;28;20112;-86
2021/08/03 08:58:35;;;;;;;2.38;1.20;;;27.20;95.30;;;;;;5072465;28;20563;-86
2021/08/03 09:01:03;;;;;;;5.82;2.80;;;27.60;93.50;;;;;;5072591;28;20057;-86
2021/08/03 09:03:31;;;;;;;3.50;1.95;;;26.80;93.60;;;;;;5072401;28;20059;-87
2021/08/03 09:06:01;;;;;;;7.60;1.80;;;27.90;94.60;;;;;;5072179;28;20135;-86
2021/08/03 09:08:36;;;;;;;3.47;2.03;;;28.30;92.50;;;;;;5072345;28;20127;-86
2021/08/03 09:11:22;;;;;;;7.68;2.80;;;30.10;91.10;;;;;;5072597;28;20052;-86
2021/08/03 09:13:49;;;;;;;1.75;1.40;;;31.10;83.60;;;;;;5072557;28;20044;-87
2021/08/03 09:16:17;;;;;;;2.15;1.30;;;30.90;81.50;;;;;;5072569;28;20051;-87
2021/08/03 09:18:47;;;;;;;2.85;1.38;;;30.10;79.00;;;;;;5072397;28;20408;-92
2021/08/03 09:21:24;;;;;;;3.80;1.92;;;28.20;83.10;;;;;;5072599;28;20137;-85
2021/08/03 09:23:54;;;;;;;8.93;1.98;;;27.40;88.30;;;;;;5072067;28;20063;-86
2021/08/03 09:26:39;;;;;;;1.77;1.67;;;27.60;88.70;;;;;;5073604;28;20568;-85
2021/08/03 09:29:10;;;;;;;2.15;2.00;;;26.60;89.80;;;;;;5072706;28;20122;-88
2021/08/03 09:31:39;;;;;;;1.52;1.52;;;26.30;91.40;;;;;;5072656;28;20135;-88
2021/08/03 09:34:10;;;;;;;1.40;1.30;;;26.50;91.90;;;;;;5072589;28;20055;-86
2021/08/03 09:36:47;;;;;;;1.77;1.60;;;27.10;91.20;;;;;;5072327;28;20138;-87
2021/08/03 09:39:36;;;;;;;1.60;1.60;;;26.90;90.00;;;;;;5072141;28;20052;-90
2021/08/03 09:42:12;;;;;;;2.33;1.50;;;27.40;90.50;;;;;;5072591;28;20094;-85
2021/08/03 09:44:48;;;;;;;2.05;1.60;;;28.40;90.00;;;;;;5071879;28;20048;-88
2021/08/03 09:47:15;;;;;;;1.73;1.45;;;29.00;84.70;;;;;;5072843;28;20044;-93
2021/08/03 09:49:44;;;;;;;14.25;4.25;;;29.90;79.60;;;;;;5073583;28;20049;-88
2021/08/03 09:52:13;;;;;;;2.25;1.52;;;29.70;79.60;;;;;;5073764;28;20123;-88
2021/08/03 09:54:40;;;;;;;16.15;3.42;;;29.30;82.40;;;;;;5076379;28;20063;-85
2021/08/03 09:57:25;;;;;;;9.02;3.97;;;29.00;80.10;;;;;;5077582;28;20404;-86
2021/08/03 09:59:53;;;;;;;4.45;1.60;;;29.00;79.00;;;;;;5074741;28;20052;-86
2021/08/03 10:02:26;;;;;;;9.35;2.80;;;28.40;79.70;;;;;;5074000;28;20493;-85
2021/08/03 10:04:54;;;;;;;13.20;5.53;;;27.40;82.60;;;;;;5074584;28;20139;-86
2021/08/03 10:07:21;;;;;;;16.60;2.90;;;27.30;85.10;;;;;;5074763;28;20121;-87
2021/08/03 10:09:50;;;;;;;5.57;2.08;;;26.30;86.60;;;;;;5074290;28;20354;-86
2021/08/03 10:12:17;;;;;;;2.50;1.90;;;27.10;85.00;;;;;;5075176;28;20040;-86
2021/08/03 10:14:45;;;;;;;10.98;2.55;;;28.00;82.90;;;;;;5081337;28;20059;-85
2021/08/03 10:17:14;;;;;;;1.83;1.63;;;28.00;82.40;;;;;;5080390;28;20135;-91
2021/08/03 10:19:42;;;;;;;15.75;2.60;;;26.50;85.40;;;;;;5076282;28;20509;-84
2021/08/03 10:22:31;;;;;;;7.13;2.17;;;25.60;89.60;;;;;;5075067;28;20053;-86
2021/08/03 10:25:01;;;;;;;2.88;2.00;;;27.10;89.80;;;;;;5076558;28;20052;-85
2021/08/03 10:27:40;;;;;;;8.43;2.08;;;28.30;83.20;;;;;;5075518;28;20139;-85
2021/08/03 10:30:09;;;;;;;16.25;4.40;;;28.60;79.00;;;;;;5075818;28;20584;-87
2021/08/03 10:32:43;;;;;;;20.60;7.53;;;28.60;80.10;;;;;;5076167;28;20102;-87
2021/08/03 10:35:14;;;;;;;;;;;29.20;80.50;;;;;;5075667;28;20132;-85
2021/08/03 10:37:57;;;;;;;11.25;5.72;;;30.10;79.30;;;;;;5075194;28;19926;-87
2021/08/03 10:40:46;;;;;;;8.45;2.13;;;31.20;74.30;;;;;;5074361;28;20048;-86
2021/08/03 10:43:20;;;;;;;12.98;4.80;;;30.10;73.60;;;;;;5075100;28;20491;-87
2021/08/03 10:46:04;;;;;;;1.52;1.42;;;31.10;71.70;;;;;;5074914;28;20135;-85
2021/08/03 10:48:37;;;;;;;2.22;1.40;;;31.80;70.40;;;;;;5075042;28;20110;-85
2021/08/03 10:51:13;;;;;;;4.27;2.30;;;31.60;67.70;;;;;;5074968;28;20508;-85
2021/08/03 10:54:04;;;;;;;2.88;1.50;;;31.30;68.30;;;;;;5075969;28;20143;-86
2021/08/03 10:56:58;;;;;;;6.80;1.38;;;31.40;67.70;;;;;;5075760;28;20110;-84
2021/08/03 10:59:34;;;;;;;20.27;3.08;;;30.10;69.10;;;;;;5074971;28;20054;-86
2021/08/03 11:02:03;;;;;;;9.88;3.58;;;28.70;73.00;;;;;;5075017;28;20355;-92
2021/08/03 11:04:59;;;;;;;5.68;2.03;;;31.50;68.00;;;;;;5074624;28;20066;-87
2021/08/03 11:07:36;;;;;;;1.20;1.10;;;31.40;65.40;;;;;;5073309;28;20135;-87
2021/08/03 11:10:09;;;;;;;1.25;1.05;;;31.10;67.40;;;;;;5074712;28;20052;-87
2021/08/03 11:12:40;;;;;;;3.85;1.25;;;31.40;66.00;;;;;;5075040;28;20048;-88
2021/08/03 11:15:23;;;;;;;1.02;1.02;;;30.50;65.20;;;;;;5074418;28;20056;-88
2021/08/03 11:17:57;;;;;;;3.90;1.40;;;29.00;68.60;;;;;;5074534;28;20044;-85
2021/08/03 11:20:33;;;;;;;3.80;1.20;;;28.70;70.10;;;;;;5074058;28;20055;-86
2021/08/03 11:23:04;;;;;;;3.40;1.63;;;28.70;70.80;;;;;;5075365;28;20090;-85
2021/08/03 11:25:32;;;;;;;8.05;2.20;;;27.60;72.00;;;;;;5074464;28;20404;-85
2021/08/03 11:28:18;;;;;;;1.20;1.08;;;28.10;74.20;;;;;;5075238;28;20067;-87
2021/08/03 11:30:49;;;;;;;1.40;1.30;;;27.70;73.90;;;;;;5075432;28;20070;-87
2021/08/03 11:33:19;;;;;;;3.08;1.20;;;26.80;75.70;;;;;;5077792;28;20408;-88
2021/08/03 11:35:46;;;;;;;11.32;2.35;;;26.90;79.30;;;;;;5079445;28;20127;-93
2021/08/03 11:38:19;;;;;;;1.30;1.30;;;27.10;77.80;;;;;;5074502;28;20112;-91
2021/08/03 11:40:46;;;;;;;;;;;28.60;76.10;;;;;;5075839;28;20063;-85
2021/08/03 11:43:13;;;;;;;1.85;1.10;;;27.70;75.40;;;;;;5075640;28;19920;-88
2021/08/03 11:45:40;;;;;;;2.25;1.30;;;26.70;77.90;;;;;;5074231;28;20132;-89
2021/08/03 11:48:21;;;;;;;5.90;2.15;;;26.10;79.30;;;;;;5074180;28;20048;-86
2021/08/03 11:50:49;;;;;;;2.75;1.52;;;25.70;82.50;;;;;;5074622;28;20048;-90
2021/08/03 11:53:17;;;;;;;4.00;1.90;;;24.50;82.20;;;;;;5074072;28;20044;-86
2021/08/03 11:55:52;;;;;;;8.07;2.10;;;23.70;88.40;;;;;;5073966;28;20048;-90
2021/08/03 11:58:30;;;;;;;3.05;1.80;;;23.40;91.50;;;;;;5073110;28;20139;-85
2021/08/03 12:01:17;;;;;;;1.55;1.30;;;23.60;93.20;;;;;;5074376;28;20052;-86
2021/08/03 12:03:45;;;;;;;1.30;1.20;;;24.50;92.30;;;;;;5073641;28;20049;-86
2021/08/03 12:06:12;;;;;;;1.50;1.40;;;24.80;91.60;;;;;;5073230;28;20053;-86
2021/08/03 12:08:42;;;;;;;2.13;1.75;;;25.10;92.10;;;;;;5073775;28;20056;-86
2021/08/03 12:11:29;;;;;;;3.42;1.50;;;25.00;90.90;;;;;;5074937;28;20049;-87
2021/08/03 12:14:13;;;;;;;10.13;1.98;;;24.90;92.00;;;;;;5075704;28;20560;-85
2021/08/03 12:16:43;;;;;;;1.55;1.38;;;24.50;90.60;;;;;;5076379;28;20162;-86
2021/08/03 12:19:36;;;;;;;1.30;1.10;;;24.30;91.30;;;;;;5073440;28;20080;-87
2021/08/03 12:22:03;;;;;;;1.40;1.35;;;24.30;91.90;;;;;;5073439;28;20045;-86
2021/08/03 12:24:34;;;;;;;1.23;1.10;;;24.00;91.40;;;;;;5073248;28;20504;-88
2021/08/03 12:27:12;;;;;;;2.20;1.23;;;23.90;93.10;;;;;;5073308;28;20048;-86
2021/08/03 12:29:39;;;;;;;1.15;0.82;;;23.90;93.20;;;;;;5073169;28;20055;-86
2021/08/03 12:32:06;;;;;;;1.38;0.90;;;23.80;93.10;;;;;;5074077;28;20114;-86
2021/08/03 12:34:37;;;;;;;2.33;2.15;;;23.80;93.40;;;;;;5072968;28;20055;-87
2021/08/03 12:37:05;;;;;;;1.90;1.00;;;23.60;93.80;;;;;;5073444;28;20048;-87
2021/08/03 12:39:37;;;;;;;1.48;1.17;;;23.30;94.50;;;;;;5073019;28;20488;-87
2021/08/03 12:45:14;;;;;;;1.33;1.20;;;22.70;96.80;;;;;;5074361;28;20049;-87
2021/08/03 12:47:52;;;;;;;;;;;22.50;99.60;;;;;;5074828;28;20128;-88
2021/08/03 12:50:19;;;;;;;1.30;1.20;;;22.30;99.90;;;;;;5074558;28;19920;-87
2021/08/03 12:52:48;;;;;;;1.13;1.02;;;22.20;99.90;;;;;;5076555;28;20457;-87
2021/08/03 12:55:30;;;;;;;3.40;1.35;;;22.10;99.90;;;;;;5073374;28;20048;-87
2021/08/03 12:57:58;;;;;;;2.33;1.10;;;22.00;99.90;;;;;;5071510;28;20049;-88
2021/08/03 13:00:39;;;;;;;1.00;1.00;;;21.90;99.90;;;;;;5072526;28;20052;-87
2021/08/03 13:03:17;;;;;;;1.83;1.23;;;21.80;99.90;;;;;;5071420;28;20051;-88
2021/08/03 13:05:44;;;;;;;2.42;1.10;;;21.40;99.90;;;;;;5071949;28;20053;-87
2021/08/03 13:08:13;;;;;;;4.93;3.92;;;21.00;99.90;;;;;;5073424;28;20055;-88